長崎空港の過去48時間の天気

長崎空港 (Nagasaki)

現在時刻: 11/13 17:22 JST (11/13 08:22 UTC) 以下の時間は現地時間です。

過去48時間のMETAR気象情報
時間 風向 風速(m/s) 視程 気温(℃) 湿度(%) 気圧(hPa) 天気現象
13 17:00 南南西 5 10km以上 20 73 1016
13 16:00 南西 5 10km以上 21 64 1016 周辺でしゅう雨
13 15:00 南西 6 10km以上 21 69 1016
13 14:00 南南西 5 10km以上 21 69 1016
13 13:00 東南東 4 10km以上 20 73 1017
13 12:00 南東 4 10km以上 19 78 1018
13 11:00 南東 5 10km以上 18 83 1019
13 10:00 南東 5 10km以上 18 77 1020
13 09:00 南南東 5 10km以上 16 88 1020
13 08:00 南東 3 10km以上 14 94 1019
13 07:00 南東 4 10km以上 14 94 1020
13 06:10 南東 3 10km以上 13 94 1019
12 21:00 2 10km以上 14 88 1019
12 20:00 北北東 3 10km以上 16 77 1019
12 19:00 4 10km以上 17 77 1020
12 18:00 北西 6 10km以上 18 73 1019
12 17:00 西北西 2 10km以上 18 68 1018
12 16:00 西南西 3 10km以上 21 56 1018
12 15:00 南西 3 10km以上 21 49 1018
12 14:00 西 3 10km以上 21 49 1018
12 13:00 1 10km以上 21 49 1018
12 12:00 不定 1 10km以上 20 53 1019
12 11:00 不定 2 10km以上 20 60 1019
12 10:00 不定 1 10km以上 18 73 1020
12 09:00 2 10km以上 16 88 1019
12 08:00 3 10km以上 15 88 1019
12 07:00 南東 3 10km以上 13 94 1017
12 06:10 東北東 3 10km以上 12 94 1017
11 21:00 東南東 1 10km以上 13 88 1014
11 20:00 東北東 2 10km以上 15 82 1014
11 19:00 北西 4 10km以上 17 68 1014
11 18:00 北西 6 10km以上 17 63 1013
RJFU 130800Z 21009KT 9999 FEW025 BKN070 BKN090 20/15 Q1016
RJFU 130700Z 23010KT 9999 VCSH SCT025 BKN090 21/14 Q1016
RJFU 130600Z 23011KT 9999 SCT025 BKN100 21/15 Q1016
RJFU 130500Z 20009KT 150V230 9999 FEW025 BKN035 BKN120 21/15 Q1016
RJFU 130400Z 12007KT 9999 FEW030 SCT040 BKN120 20/15 Q1017
RJFU 130300Z 13008KT 9999 FEW025 BKN120 19/15 Q1018
RJFU 130200Z 14010KT 9999 FEW030 BKN120 BKN150 18/15 Q1019
RJFU 130100Z 14009KT 9999 FEW030 BKN150 18/14 Q1020
RJFU 130000Z 15010KT 9999 FEW030 SCT/// 16/14 Q1020
RJFU 122300Z 13006KT 9999 FEW015 BKN030 14/13 Q1019
RJFU 122200Z 14008KT 9999 FEW025 BKN030 14/13 Q1020
RJFU 122110Z 13006KT 9999 FEW050 13/12 Q1019 RMK 1SC050 A3012
RJFU 121200Z 01004KT 9999 FEW040 BKN/// 14/12 Q1019
RJFU 121100Z 02006KT 9999 FEW040 SCT/// 16/12 Q1019
RJFU 121000Z 01008KT 9999 FEW040 SCT/// 17/13 Q1020
RJFU 120900Z 31011KT 9999 FEW050 SCT170 BKN/// 18/13 Q1019
RJFU 120800Z 29004KT 9999 FEW050 BKN180 BKN/// 18/12 Q1018
RJFU 120700Z 24006KT 210V290 9999 FEW050 BKN180 21/12 Q1018
RJFU 120600Z 23005KT 200V280 9999 FEW050 SCT/// 21/10 Q1018
RJFU 120500Z 28006KT 220V310 9999 FEW040 21/10 Q1018
RJFU 120400Z 35002KT 9999 FEW040 21/10 Q1018
RJFU 120300Z VRB02KT 9999 FEW040 20/10 Q1019
RJFU 120200Z VRB03KT 9999 FEW040 20/12 Q1019
RJFU 120100Z VRB01KT 9999 FEW035 18/13 Q1020
RJFU 120000Z 09004KT 9999 FEW035 16/14 Q1019
RJFU 112300Z 17006KT 9999 FEW035 15/13 Q1019
RJFU 112200Z 14006KT 9999 FEW050 13/12 Q1017
RJFU 112110Z 07005KT 9999 FEW030 12/11 Q1017 RMK 1CU030 A3005
RJFU 111200Z 11002KT 9999 FEW040 SCT060 13/11 Q1014
RJFU 111100Z 06004KT 9999 FEW040 15/12 Q1014
RJFU 111000Z 31008KT 9999 FEW040 17/11 Q1014
RJFU 110900Z 31011KT 9999 FEW040 17/10 Q1013